sensor_id;sensor_type;location;lat;lon;timestamp;temperature;humidity
15384;DHT22;7790;53.022;12.968;2023-02-15T00:00:10;21.00;40.80
15384;DHT22;7790;53.022;12.968;2023-02-15T00:04:19;21.00;40.80
15384;DHT22;7790;53.022;12.968;2023-02-15T00:08:20;21.00;40.80
15384;DHT22;7790;53.022;12.968;2023-02-15T00:12:21;21.00;40.60
15384;DHT22;7790;53.022;12.968;2023-02-15T00:16:22;21.00;40.60
15384;DHT22;7790;53.022;12.968;2023-02-15T00:20:23;20.90;40.60
15384;DHT22;7790;53.022;12.968;2023-02-15T00:24:24;20.90;40.70
15384;DHT22;7790;53.022;12.968;2023-02-15T00:28:24;20.80;40.80
15384;DHT22;7790;53.022;12.968;2023-02-15T00:32:26;20.70;40.80
15384;DHT22;7790;53.022;12.968;2023-02-15T00:36:27;20.70;40.90
15384;DHT22;7790;53.022;12.968;2023-02-15T00:40:27;20.70;41.00
15384;DHT22;7790;53.022;12.968;2023-02-15T00:44:29;20.70;41.10
15384;DHT22;7790;53.022;12.968;2023-02-15T00:48:31;20.80;41.10
15384;DHT22;7790;53.022;12.968;2023-02-15T00:52:31;20.80;41.40
15384;DHT22;7790;53.022;12.968;2023-02-15T00:56:32;20.90;40.80
15384;DHT22;7790;53.022;12.968;2023-02-15T01:00:35;20.90;40.60
15384;DHT22;7790;53.022;12.968;2023-02-15T01:04:38;21.00;40.40
15384;DHT22;7790;53.022;12.968;2023-02-15T01:08:39;21.00;40.40
15384;DHT22;7790;53.022;12.968;2023-02-15T01:12:42;20.90;40.10
15384;DHT22;7790;53.022;12.968;2023-02-15T01:16:43;20.90;40.10
15384;DHT22;7790;53.022;12.968;2023-02-15T01:20:44;20.80;40.20
15384;DHT22;7790;53.022;12.968;2023-02-15T01:24:45;20.70;40.10
15384;DHT22;7790;53.022;12.968;2023-02-15T01:28:46;20.70;40.10
15384;DHT22;7790;53.022;12.968;2023-02-15T01:32:47;20.70;40.20
15384;DHT22;7790;53.022;12.968;2023-02-15T01:36:48;20.70;40.20
15384;DHT22;7790;53.022;12.968;2023-02-15T01:40:53;20.80;40.00
15384;DHT22;7790;53.022;12.968;2023-02-15T01:45:01;20.80;39.90
15384;DHT22;7790;53.022;12.968;2023-02-15T01:49:13;20.90;39.90
15384;DHT22;7790;53.022;12.968;2023-02-15T01:53:28;20.80;39.80
15384;DHT22;7790;53.022;12.968;2023-02-15T01:57:33;20.80;39.80
15384;DHT22;7790;53.022;12.968;2023-02-15T02:01:34;20.70;39.70
15384;DHT22;7790;53.022;12.968;2023-02-15T02:05:35;20.60;39.80
15384;DHT22;7790;53.022;12.968;2023-02-15T02:09:38;20.60;39.80
15384;DHT22;7790;53.022;12.968;2023-02-15T02:13:43;20.50;39.70
15384;DHT22;7790;53.022;12.968;2023-02-15T02:18:20;20.60;39.80
15384;DHT22;7790;53.022;12.968;2023-02-15T02:35:41;20.80;39.50
15384;DHT22;7790;53.022;12.968;2023-02-15T02:44:31;20.90;39.40
15384;DHT22;7790;53.022;12.968;2023-02-15T02:48:35;20.90;39.40
15384;DHT22;7790;53.022;12.968;2023-02-15T02:52:48;20.80;39.30
15384;DHT22;7790;53.022;12.968;2023-02-15T02:56:51;20.70;39.30
15384;DHT22;7790;53.022;12.968;2023-02-15T03:01:01;20.70;39.50
15384;DHT22;7790;53.022;12.968;2023-02-15T03:05:11;20.50;39.60
15384;DHT22;7790;53.022;12.968;2023-02-15T03:09:38;20.50;39.30
15384;DHT22;7790;53.022;12.968;2023-02-15T03:13:44;20.50;39.40
15384;DHT22;7790;53.022;12.968;2023-02-15T03:17:51;20.60;39.40
15384;DHT22;7790;53.022;12.968;2023-02-15T03:26:27;20.60;39.30
15384;DHT22;7790;53.022;12.968;2023-02-15T03:30:29;20.70;39.40
15384;DHT22;7790;53.022;12.968;2023-02-15T03:34:31;20.80;39.20
15384;DHT22;7790;53.022;12.968;2023-02-15T03:38:40;20.80;39.10
15384;DHT22;7790;53.022;12.968;2023-02-15T03:42:45;20.80;39.10
15384;DHT22;7790;53.022;12.968;2023-02-15T03:47:00;20.80;39.00
15384;DHT22;7790;53.022;12.968;2023-02-15T03:51:11;20.80;38.90
15384;DHT22;7790;53.022;12.968;2023-02-15T03:55:31;20.80;39.00
15384;DHT22;7790;53.022;12.968;2023-02-15T03:59:33;20.70;39.20
15384;DHT22;7790;53.022;12.968;2023-02-15T04:04:18;20.60;39.10
15384;DHT22;7790;53.022;12.968;2023-02-15T04:08:19;20.50;39.20
15384;DHT22;7790;53.022;12.968;2023-02-15T04:12:21;20.50;39.00
15384;DHT22;7790;53.022;12.968;2023-02-15T04:16:25;20.50;38.90
15384;DHT22;7790;53.022;12.968;2023-02-15T04:20:26;20.60;38.90
15384;DHT22;7790;53.022;12.968;2023-02-15T04:24:45;20.60;39.00
15384;DHT22;7790;53.022;12.968;2023-02-15T04:29:05;20.60;39.60
15384;DHT22;7790;53.022;12.968;2023-02-15T04:33:05;20.70;39.00
15384;DHT22;7790;53.022;12.968;2023-02-15T04:37:06;20.70;39.00
15384;DHT22;7790;53.022;12.968;2023-02-15T04:41:07;20.70;38.70
15384;DHT22;7790;53.022;12.968;2023-02-15T04:45:08;20.80;38.70
15384;DHT22;7790;53.022;12.968;2023-02-15T04:49:09;20.70;38.60
15384;DHT22;7790;53.022;12.968;2023-02-15T04:53:10;20.70;38.60
15384;DHT22;7790;53.022;12.968;2023-02-15T04:57:12;20.70;38.50
15384;DHT22;7790;53.022;12.968;2023-02-15T05:01:13;20.70;38.60
15384;DHT22;7790;53.022;12.968;2023-02-15T05:05:15;20.60;38.70
15384;DHT22;7790;53.022;12.968;2023-02-15T05:09:15;20.50;38.70
15384;DHT22;7790;53.022;12.968;2023-02-15T05:13:16;20.40;38.80
15384;DHT22;7790;53.022;12.968;2023-02-15T05:17:17;20.40;38.70
15384;DHT22;7790;53.022;12.968;2023-02-15T05:21:18;20.50;38.60
15384;DHT22;7790;53.022;12.968;2023-02-15T05:25:19;20.50;38.70
15384;DHT22;7790;53.022;12.968;2023-02-15T05:29:39;20.50;38.80
15384;DHT22;7790;53.022;12.968;2023-02-15T05:33:40;20.60;39.00
15384;DHT22;7790;53.022;12.968;2023-02-15T05:37:41;20.70;38.80
15384;DHT22;7790;53.022;12.968;2023-02-15T05:41:42;20.70;38.70
15384;DHT22;7790;53.022;12.968;2023-02-15T05:45:47;20.80;38.50
15384;DHT22;7790;53.022;12.968;2023-02-15T05:49:48;20.80;38.30
15384;DHT22;7790;53.022;12.968;2023-02-15T05:53:49;20.80;38.20
15384;DHT22;7790;53.022;12.968;2023-02-15T05:57:50;20.80;38.20
15384;DHT22;7790;53.022;12.968;2023-02-15T06:01:51;20.70;38.20
15384;DHT22;7790;53.022;12.968;2023-02-15T06:05:52;20.60;38.20
15384;DHT22;7790;53.022;12.968;2023-02-15T06:09:53;20.60;38.30
15384;DHT22;7790;53.022;12.968;2023-02-15T06:13:54;20.50;38.50
15384;DHT22;7790;53.022;12.968;2023-02-15T06:17:54;20.40;38.50
15384;DHT22;7790;53.022;12.968;2023-02-15T06:21:55;20.40;38.50
15384;DHT22;7790;53.022;12.968;2023-02-15T06:25:56;20.30;39.00
15384;DHT22;7790;53.022;12.968;2023-02-15T06:29:57;20.30;38.30
15384;DHT22;7790;53.022;12.968;2023-02-15T06:33:57;20.30;38.40
15384;DHT22;7790;53.022;12.968;2023-02-15T06:38:01;20.20;38.20
15384;DHT22;7790;53.022;12.968;2023-02-15T06:42:02;20.10;38.30
15384;DHT22;7790;53.022;12.968;2023-02-15T06:46:03;20.20;38.30
15384;DHT22;7790;53.022;12.968;2023-02-15T06:50:05;20.40;38.60
15384;DHT22;7790;53.022;12.968;2023-02-15T06:54:06;20.50;38.70
15384;DHT22;7790;53.022;12.968;2023-02-15T06:58:07;20.60;38.60
15384;DHT22;7790;53.022;12.968;2023-02-15T07:02:11;20.70;38.50
15384;DHT22;7790;53.022;12.968;2023-02-15T07:06:11;20.70;38.60
15384;DHT22;7790;53.022;12.968;2023-02-15T07:10:12;20.80;38.30
15384;DHT22;7790;53.022;12.968;2023-02-15T07:14:13;20.90;38.70
15384;DHT22;7790;53.022;12.968;2023-02-15T07:18:14;20.90;39.40
15384;DHT22;7790;53.022;12.968;2023-02-15T07:22:15;20.90;39.50
15384;DHT22;7790;53.022;12.968;2023-02-15T07:26:15;20.80;40.10
15384;DHT22;7790;53.022;12.968;2023-02-15T07:30:17;20.80;40.10
15384;DHT22;7790;53.022;12.968;2023-02-15T07:34:18;20.80;40.10
15384;DHT22;7790;53.022;12.968;2023-02-15T07:38:18;20.80;39.90
15384;DHT22;7790;53.022;12.968;2023-02-15T07:42:19;20.80;39.70
15384;DHT22;7790;53.022;12.968;2023-02-15T07:46:21;20.70;39.80
15384;DHT22;7790;53.022;12.968;2023-02-15T07:50:22;20.80;39.80
15384;DHT22;7790;53.022;12.968;2023-02-15T07:54:23;20.90;39.60
15384;DHT22;7790;53.022;12.968;2023-02-15T07:58:24;21.00;39.50
15384;DHT22;7790;53.022;12.968;2023-02-15T08:02:49;21.00;39.50
15384;DHT22;7790;53.022;12.968;2023-02-15T08:07:10;21.00;39.40
15384;DHT22;7790;53.022;12.968;2023-02-15T08:15:36;21.00;39.10
15384;DHT22;7790;53.022;12.968;2023-02-15T08:19:37;21.00;39.10
15384;DHT22;7790;53.022;12.968;2023-02-15T08:23:38;21.00;38.90
15384;DHT22;7790;53.022;12.968;2023-02-15T08:27:39;21.00;38.90
15384;DHT22;7790;53.022;12.968;2023-02-15T08:31:40;21.00;39.10
15384;DHT22;7790;53.022;12.968;2023-02-15T08:35:42;20.90;39.30
15384;DHT22;7790;53.022;12.968;2023-02-15T08:39:42;20.80;39.20
15384;DHT22;7790;53.022;12.968;2023-02-15T08:43:44;20.70;39.10
15384;DHT22;7790;53.022;12.968;2023-02-15T08:47:45;20.70;39.20
15384;DHT22;7790;53.022;12.968;2023-02-15T08:51:46;20.70;39.30
15384;DHT22;7790;53.022;12.968;2023-02-15T08:55:55;20.80;39.10
15384;DHT22;7790;53.022;12.968;2023-02-15T08:59:56;20.80;39.10
15384;DHT22;7790;53.022;12.968;2023-02-15T09:04:02;20.90;39.00
15384;DHT22;7790;53.022;12.968;2023-02-15T09:08:04;21.00;39.10
15384;DHT22;7790;53.022;12.968;2023-02-15T09:12:05;21.00;39.00
15384;DHT22;7790;53.022;12.968;2023-02-15T09:16:08;21.00;38.90
15384;DHT22;7790;53.022;12.968;2023-02-15T09:20:10;21.00;38.90
15384;DHT22;7790;53.022;12.968;2023-02-15T09:24:13;21.10;38.80
15384;DHT22;7790;53.022;12.968;2023-02-15T09:28:14;21.10;38.90
15384;DHT22;7790;53.022;12.968;2023-02-15T09:32:15;21.10;38.70
15384;DHT22;7790;53.022;12.968;2023-02-15T09:40:20;21.00;38.70
15384;DHT22;7790;53.022;12.968;2023-02-15T09:48:49;21.00;38.80
15384;DHT22;7790;53.022;12.968;2023-02-15T09:57:27;20.60;39.00
15384;DHT22;7790;53.022;12.968;2023-02-15T10:10:39;20.50;39.00
15384;DHT22;7790;53.022;12.968;2023-02-15T10:28:05;20.50;37.80
15384;DHT22;7790;53.022;12.968;2023-02-15T10:32:22;20.60;37.60
15384;DHT22;7790;53.022;12.968;2023-02-15T10:45:45;20.80;37.20
15384;DHT22;7790;53.022;12.968;2023-02-15T10:54:14;20.80;37.00
15384;DHT22;7790;53.022;12.968;2023-02-15T11:03:28;20.80;37.00
15384;DHT22;7790;53.022;12.968;2023-02-15T11:07:40;20.70;36.90
15384;DHT22;7790;53.022;12.968;2023-02-15T11:11:42;20.70;36.90
15384;DHT22;7790;53.022;12.968;2023-02-15T11:24:14;20.70;36.90
15384;DHT22;7790;53.022;12.968;2023-02-15T11:28:23;20.70;37.30
15384;DHT22;7790;53.022;12.968;2023-02-15T11:36:37;20.60;37.50
15384;DHT22;7790;53.022;12.968;2023-02-15T11:40:48;20.70;37.70
15384;DHT22;7790;53.022;12.968;2023-02-15T11:45:02;20.70;37.70
15384;DHT22;7790;53.022;12.968;2023-02-15T11:49:31;20.70;37.50
15384;DHT22;7790;53.022;12.968;2023-02-15T11:53:36;20.70;37.50
15384;DHT22;7790;53.022;12.968;2023-02-15T11:57:41;20.70;37.50
15384;DHT22;7790;53.022;12.968;2023-02-15T12:01:45;20.70;37.50
15384;DHT22;7790;53.022;12.968;2023-02-15T12:05:52;20.70;37.60
15384;DHT22;7790;53.022;12.968;2023-02-15T12:14:22;20.60;37.90
15384;DHT22;7790;53.022;12.968;2023-02-15T12:18:43;20.60;37.60
15384;DHT22;7790;53.022;12.968;2023-02-15T12:22:50;20.70;37.70
15384;DHT22;7790;53.022;12.968;2023-02-15T12:27:18;20.70;38.30
15384;DHT22;7790;53.022;12.968;2023-02-15T12:31:40;20.60;38.50
15384;DHT22;7790;53.022;12.968;2023-02-15T12:35:44;20.70;38.90
15384;DHT22;7790;53.022;12.968;2023-02-15T12:39:58;20.70;39.10
15384;DHT22;7790;53.022;12.968;2023-02-15T12:48:20;20.60;39.40
15384;DHT22;7790;53.022;12.968;2023-02-15T12:56:26;20.80;40.20
15384;DHT22;7790;53.022;12.968;2023-02-15T13:00:29;20.80;40.20
15384;DHT22;7790;53.022;12.968;2023-02-15T13:04:32;20.90;40.20
15384;DHT22;7790;53.022;12.968;2023-02-15T13:08:46;20.80;40.20
15384;DHT22;7790;53.022;12.968;2023-02-15T13:12:48;20.90;40.20
15384;DHT22;7790;53.022;12.968;2023-02-15T13:16:53;20.80;40.40
15384;DHT22;7790;53.022;12.968;2023-02-15T13:21:11;20.70;40.00
15384;DHT22;7790;53.022;12.968;2023-02-15T13:25:26;20.80;39.90
15384;DHT22;7790;53.022;12.968;2023-02-15T13:29:32;20.80;40.10
15384;DHT22;7790;53.022;12.968;2023-02-15T13:33:36;20.80;40.10
15384;DHT22;7790;53.022;12.968;2023-02-15T13:42:22;20.80;40.00
15384;DHT22;7790;53.022;12.968;2023-02-15T13:51:19;20.80;39.80
15384;DHT22;7790;53.022;12.968;2023-02-15T14:08:11;20.90;39.80
15384;DHT22;7790;53.022;12.968;2023-02-15T14:16:41;20.90;39.90
15384;DHT22;7790;53.022;12.968;2023-02-15T14:25:23;20.80;40.00
15384;DHT22;7790;53.022;12.968;2023-02-15T14:29:41;20.80;40.00
15384;DHT22;7790;53.022;12.968;2023-02-15T14:33:56;20.80;40.00
15384;DHT22;7790;53.022;12.968;2023-02-15T14:38:32;20.80;39.80
15384;DHT22;7790;53.022;12.968;2023-02-15T14:51:07;20.80;39.70
15384;DHT22;7790;53.022;12.968;2023-02-15T14:55:08;20.80;39.80
15384;DHT22;7790;53.022;12.968;2023-02-15T15:03:21;20.80;39.60
15384;DHT22;7790;53.022;12.968;2023-02-15T15:07:35;20.80;39.70
15384;DHT22;7790;53.022;12.968;2023-02-15T15:11:48;20.80;39.80
15384;DHT22;7790;53.022;12.968;2023-02-15T15:15:52;20.80;39.70
15384;DHT22;7790;53.022;12.968;2023-02-15T15:23:54;20.90;39.70
15384;DHT22;7790;53.022;12.968;2023-02-15T15:27:56;20.90;39.60
15384;DHT22;7790;53.022;12.968;2023-02-15T15:32:00;20.80;39.70
15384;DHT22;7790;53.022;12.968;2023-02-15T15:36:35;20.80;39.70
15384;DHT22;7790;53.022;12.968;2023-02-15T15:41:17;20.80;39.80
15384;DHT22;7790;53.022;12.968;2023-02-15T15:49:38;20.80;39.50
15384;DHT22;7790;53.022;12.968;2023-02-15T15:53:42;20.80;39.50
15384;DHT22;7790;53.022;12.968;2023-02-15T15:57:58;20.80;39.50
15384;DHT22;7790;53.022;12.968;2023-02-15T16:02:05;20.90;39.60
15384;DHT22;7790;53.022;12.968;2023-02-15T16:06:25;20.90;39.80
15384;DHT22;7790;53.022;12.968;2023-02-15T16:10:28;21.00;39.70
15384;DHT22;7790;53.022;12.968;2023-02-15T16:14:40;21.00;39.80
15384;DHT22;7790;53.022;12.968;2023-02-15T16:18:43;21.00;39.70
15384;DHT22;7790;53.022;12.968;2023-02-15T16:22:46;20.90;39.70
15384;DHT22;7790;53.022;12.968;2023-02-15T16:27:13;20.80;39.60
15384;DHT22;7790;53.022;12.968;2023-02-15T16:31:16;20.80;39.40
15384;DHT22;7790;53.022;12.968;2023-02-15T16:35:19;20.70;39.30
15384;DHT22;7790;53.022;12.968;2023-02-15T16:39:20;20.60;39.30
15384;DHT22;7790;53.022;12.968;2023-02-15T16:43:27;20.50;39.30
15384;DHT22;7790;53.022;12.968;2023-02-15T16:47:31;20.40;39.30
15384;DHT22;7790;53.022;12.968;2023-02-15T16:51:34;20.30;39.30
15384;DHT22;7790;53.022;12.968;2023-02-15T16:55:41;20.20;39.30
15384;DHT22;7790;53.022;12.968;2023-02-15T16:59:46;20.10;40.20
15384;DHT22;7790;53.022;12.968;2023-02-15T17:03:52;20.00;40.50
15384;DHT22;7790;53.022;12.968;2023-02-15T17:08:32;20.00;40.20
15384;DHT22;7790;53.022;12.968;2023-02-15T17:12:47;20.00;40.20
15384;DHT22;7790;53.022;12.968;2023-02-15T17:17:12;20.00;40.20
15384;DHT22;7790;53.022;12.968;2023-02-15T17:21:20;19.90;40.10
15384;DHT22;7790;53.022;12.968;2023-02-15T17:25:37;19.80;40.20
15384;DHT22;7790;53.022;12.968;2023-02-15T17:29:40;19.80;40.10
15384;DHT22;7790;53.022;12.968;2023-02-15T17:33:41;20.00;40.10
15384;DHT22;7790;53.022;12.968;2023-02-15T17:37:48;20.20;40.00
15384;DHT22;7790;53.022;12.968;2023-02-15T17:41:48;20.30;40.20
15384;DHT22;7790;53.022;12.968;2023-02-15T17:45:53;20.50;40.70
15384;DHT22;7790;53.022;12.968;2023-02-15T17:49:55;20.70;40.50
15384;DHT22;7790;53.022;12.968;2023-02-15T17:53:56;20.80;40.30
15384;DHT22;7790;53.022;12.968;2023-02-15T17:58:17;20.90;40.30
15384;DHT22;7790;53.022;12.968;2023-02-15T18:02:19;21.00;40.40
15384;DHT22;7790;53.022;12.968;2023-02-15T18:06:40;21.10;40.40
15384;DHT22;7790;53.022;12.968;2023-02-15T18:11:00;21.10;40.30
15384;DHT22;7790;53.022;12.968;2023-02-15T18:15:20;21.30;40.00
15384;DHT22;7790;53.022;12.968;2023-02-15T18:19:23;21.30;39.80
15384;DHT22;7790;53.022;12.968;2023-02-15T18:23:24;21.30;39.80
15384;DHT22;7790;53.022;12.968;2023-02-15T18:27:25;21.30;39.70
15384;DHT22;7790;53.022;12.968;2023-02-15T18:31:26;21.40;39.60
15384;DHT22;7790;53.022;12.968;2023-02-15T18:35:31;21.30;39.50
15384;DHT22;7790;53.022;12.968;2023-02-15T18:39:36;21.30;39.50
15384;DHT22;7790;53.022;12.968;2023-02-15T18:43:41;21.30;39.50
15384;DHT22;7790;53.022;12.968;2023-02-15T18:47:44;21.30;39.40
15384;DHT22;7790;53.022;12.968;2023-02-15T18:51:45;21.30;39.60
15384;DHT22;7790;53.022;12.968;2023-02-15T18:55:46;21.30;39.50
15384;DHT22;7790;53.022;12.968;2023-02-15T18:59:49;21.30;39.40
15384;DHT22;7790;53.022;12.968;2023-02-15T19:03:50;21.30;39.30
15384;DHT22;7790;53.022;12.968;2023-02-15T19:07:51;21.30;39.40
15384;DHT22;7790;53.022;12.968;2023-02-15T19:11:54;21.20;39.60
15384;DHT22;7790;53.022;12.968;2023-02-15T19:15:55;21.40;39.60
15384;DHT22;7790;53.022;12.968;2023-02-15T19:19:56;21.30;39.50
15384;DHT22;7790;53.022;12.968;2023-02-15T19:24:00;21.20;39.50
15384;DHT22;7790;53.022;12.968;2023-02-15T19:28:13;21.20;39.70
15384;DHT22;7790;53.022;12.968;2023-02-15T19:32:14;21.20;39.70
15384;DHT22;7790;53.022;12.968;2023-02-15T19:36:17;21.20;39.60
15384;DHT22;7790;53.022;12.968;2023-02-15T19:40:32;21.20;39.50
15384;DHT22;7790;53.022;12.968;2023-02-15T19:44:33;21.20;39.80
15384;DHT22;7790;53.022;12.968;2023-02-15T19:48:34;21.20;39.50
15384;DHT22;7790;53.022;12.968;2023-02-15T19:52:35;21.20;39.40
15384;DHT22;7790;53.022;12.968;2023-02-15T19:56:36;21.20;39.40
15384;DHT22;7790;53.022;12.968;2023-02-15T20:00:39;21.30;39.40
15384;DHT22;7790;53.022;12.968;2023-02-15T20:04:40;21.20;39.30
15384;DHT22;7790;53.022;12.968;2023-02-15T20:08:41;21.10;39.50
15384;DHT22;7790;53.022;12.968;2023-02-15T20:12:42;21.20;39.30
15384;DHT22;7790;53.022;12.968;2023-02-15T20:16:44;21.10;39.30
15384;DHT22;7790;53.022;12.968;2023-02-15T20:20:52;21.10;39.20
15384;DHT22;7790;53.022;12.968;2023-02-15T20:24:55;21.10;39.30
15384;DHT22;7790;53.022;12.968;2023-02-15T20:28:56;21.10;39.10
15384;DHT22;7790;53.022;12.968;2023-02-15T20:32:57;21.10;39.00
15384;DHT22;7790;53.022;12.968;2023-02-15T20:36:58;21.20;38.90
15384;DHT22;7790;53.022;12.968;2023-02-15T20:40:59;21.20;38.70
15384;DHT22;7790;53.022;12.968;2023-02-15T20:45:22;21.20;38.80
15384;DHT22;7790;53.022;12.968;2023-02-15T20:49:25;21.20;38.80
15384;DHT22;7790;53.022;12.968;2023-02-15T20:53:27;21.20;38.80
15384;DHT22;7790;53.022;12.968;2023-02-15T20:57:28;21.20;38.70
15384;DHT22;7790;53.022;12.968;2023-02-15T21:01:29;21.20;38.70
15384;DHT22;7790;53.022;12.968;2023-02-15T21:05:31;21.10;38.70
15384;DHT22;7790;53.022;12.968;2023-02-15T21:09:32;21.00;38.90
15384;DHT22;7790;53.022;12.968;2023-02-15T21:13:34;20.90;39.00
15384;DHT22;7790;53.022;12.968;2023-02-15T21:17:35;20.70;39.00
15384;DHT22;7790;53.022;12.968;2023-02-15T21:21:35;20.60;39.10
15384;DHT22;7790;53.022;12.968;2023-02-15T21:25:37;20.60;39.10
15384;DHT22;7790;53.022;12.968;2023-02-15T21:29:38;20.70;39.10
15384;DHT22;7790;53.022;12.968;2023-02-15T21:33:38;20.70;39.00
15384;DHT22;7790;53.022;12.968;2023-02-15T21:37:40;20.70;38.90
15384;DHT22;7790;53.022;12.968;2023-02-15T21:41:44;20.70;39.10
15384;DHT22;7790;53.022;12.968;2023-02-15T21:46:13;20.70;39.10
15384;DHT22;7790;53.022;12.968;2023-02-15T21:50:34;20.80;39.20
15384;DHT22;7790;53.022;12.968;2023-02-15T21:54:53;20.80;39.10
15384;DHT22;7790;53.022;12.968;2023-02-15T21:58:54;20.80;39.10
15384;DHT22;7790;53.022;12.968;2023-02-15T22:02:57;20.80;39.10
15384;DHT22;7790;53.022;12.968;2023-02-15T22:06:58;20.80;39.10
15384;DHT22;7790;53.022;12.968;2023-02-15T22:10:59;20.80;39.00
15384;DHT22;7790;53.022;12.968;2023-02-15T22:15:00;20.90;39.00
15384;DHT22;7790;53.022;12.968;2023-02-15T22:19:01;20.90;39.10
15384;DHT22;7790;53.022;12.968;2023-02-15T22:23:02;20.90;39.10
15384;DHT22;7790;53.022;12.968;2023-02-15T22:27:04;20.90;39.10
15384;DHT22;7790;53.022;12.968;2023-02-15T22:31:09;20.90;39.10
15384;DHT22;7790;53.022;12.968;2023-02-15T22:35:16;20.90;39.20
15384;DHT22;7790;53.022;12.968;2023-02-15T22:39:18;20.90;39.10
15384;DHT22;7790;53.022;12.968;2023-02-15T22:43:36;20.90;39.10
15384;DHT22;7790;53.022;12.968;2023-02-15T22:47:37;20.90;39.20
15384;DHT22;7790;53.022;12.968;2023-02-15T22:51:39;20.90;39.10
15384;DHT22;7790;53.022;12.968;2023-02-15T22:55:40;20.90;39.20
15384;DHT22;7790;53.022;12.968;2023-02-15T22:59:40;20.90;39.10
15384;DHT22;7790;53.022;12.968;2023-02-15T23:03:41;20.90;39.00
15384;DHT22;7790;53.022;12.968;2023-02-15T23:07:42;20.90;38.90
15384;DHT22;7790;53.022;12.968;2023-02-15T23:11:43;20.90;39.00
15384;DHT22;7790;53.022;12.968;2023-02-15T23:15:48;21.00;39.00
15384;DHT22;7790;53.022;12.968;2023-02-15T23:19:49;21.00;39.00
15384;DHT22;7790;53.022;12.968;2023-02-15T23:23:56;21.00;39.00
15384;DHT22;7790;53.022;12.968;2023-02-15T23:27:58;21.00;39.10
15384;DHT22;7790;53.022;12.968;2023-02-15T23:31:58;21.00;39.00
15384;DHT22;7790;53.022;12.968;2023-02-15T23:35:59;21.00;39.00
15384;DHT22;7790;53.022;12.968;2023-02-15T23:40:00;20.90;39.00
15384;DHT22;7790;53.022;12.968;2023-02-15T23:44:19;20.90;39.10
15384;DHT22;7790;53.022;12.968;2023-02-15T23:48:30;20.90;39.00
15384;DHT22;7790;53.022;12.968;2023-02-15T23:52:33;20.90;39.10
15384;DHT22;7790;53.022;12.968;2023-02-15T23:56:34;20.90;38.90
